sensor_id;sensor_type;location;lat;lon;timestamp;P1;durP1;ratioP1;P2;durP2;ratioP2
32292;SDS011;43233;48.608;8.838;2023-06-14T00:00:17;7.23;;;4.37;;
32292;SDS011;43233;48.608;8.838;2023-06-14T00:02:43;8.67;;;4.30;;
32292;SDS011;43233;48.608;8.838;2023-06-14T00:05:09;4.57;;;4.13;;
32292;SDS011;43233;48.608;8.838;2023-06-14T00:07:37;4.90;;;4.40;;
32292;SDS011;43233;48.608;8.838;2023-06-14T00:10:08;6.80;;;4.10;;
32292;SDS011;43233;48.608;8.838;2023-06-14T00:12:34;5.30;;;4.20;;
32292;SDS011;43233;48.608;8.838;2023-06-14T00:15:01;5.93;;;4.37;;
32292;SDS011;43233;48.608;8.838;2023-06-14T00:17:27;8.03;;;4.10;;
32292;SDS011;43233;48.608;8.838;2023-06-14T00:19:56;4.57;;;4.20;;
32292;SDS011;43233;48.608;8.838;2023-06-14T00:22:25;4.30;;;3.87;;
32292;SDS011;43233;48.608;8.838;2023-06-14T00:24:53;4.83;;;4.33;;
32292;SDS011;43233;48.608;8.838;2023-06-14T00:27:19;4.13;;;3.83;;
32292;SDS011;43233;48.608;8.838;2023-06-14T00:29:45;7.10;;;4.33;;
32292;SDS011;43233;48.608;8.838;2023-06-14T00:32:10;5.83;;;4.47;;
32292;SDS011;43233;48.608;8.838;2023-06-14T00:34:36;6.10;;;4.67;;
32292;SDS011;43233;48.608;8.838;2023-06-14T00:37:01;11.13;;;4.13;;
32292;SDS011;43233;48.608;8.838;2023-06-14T00:39:28;5.30;;;4.47;;
32292;SDS011;43233;48.608;8.838;2023-06-14T00:41:54;4.80;;;4.30;;
32292;SDS011;43233;48.608;8.838;2023-06-14T00:44:19;4.67;;;4.27;;
32292;SDS011;43233;48.608;8.838;2023-06-14T00:46:46;4.60;;;4.20;;
32292;SDS011;43233;48.608;8.838;2023-06-14T00:49:12;7.60;;;4.33;;
32292;SDS011;43233;48.608;8.838;2023-06-14T00:51:40;9.53;;;4.63;;
32292;SDS011;43233;48.608;8.838;2023-06-14T00:54:10;5.63;;;5.03;;
32292;SDS011;43233;48.608;8.838;2023-06-14T00:56:36;6.60;;;4.50;;
32292;SDS011;43233;48.608;8.838;2023-06-14T00:59:02;6.10;;;4.30;;
32292;SDS011;43233;48.608;8.838;2023-06-14T01:01:28;6.63;;;5.47;;
32292;SDS011;43233;48.608;8.838;2023-06-14T01:03:57;5.63;;;4.60;;
32292;SDS011;43233;48.608;8.838;2023-06-14T01:06:57;7.63;;;4.93;;
32292;SDS011;43233;48.608;8.838;2023-06-14T01:10:12;4.70;;;4.30;;
32292;SDS011;43233;48.608;8.838;2023-06-14T01:12:38;7.13;;;4.90;;
32292;SDS011;43233;48.608;8.838;2023-06-14T01:15:13;5.70;;;4.73;;
32292;SDS011;43233;48.608;8.838;2023-06-14T01:17:39;20.77;;;5.10;;
32292;SDS011;43233;48.608;8.838;2023-06-14T01:20:09;7.13;;;4.70;;
32292;SDS011;43233;48.608;8.838;2023-06-14T01:22:47;10.50;;;4.60;;
32292;SDS011;43233;48.608;8.838;2023-06-14T01:25:19;7.00;;;4.97;;
32292;SDS011;43233;48.608;8.838;2023-06-14T01:27:48;5.87;;;4.90;;
32292;SDS011;43233;48.608;8.838;2023-06-14T01:30:23;4.80;;;4.30;;
32292;SDS011;43233;48.608;8.838;2023-06-14T01:32:53;8.30;;;5.00;;
32292;SDS011;43233;48.608;8.838;2023-06-14T01:35:20;8.50;;;4.40;;
32292;SDS011;43233;48.608;8.838;2023-06-14T01:37:47;7.50;;;4.00;;
32292;SDS011;43233;48.608;8.838;2023-06-14T01:40:14;4.20;;;3.90;;
32292;SDS011;43233;48.608;8.838;2023-06-14T01:42:40;7.20;;;5.23;;
32292;SDS011;43233;48.608;8.838;2023-06-14T01:45:07;5.83;;;5.23;;
32292;SDS011;43233;48.608;8.838;2023-06-14T01:47:35;5.37;;;4.87;;
32292;SDS011;43233;48.608;8.838;2023-06-14T01:50:04;5.00;;;4.50;;
32292;SDS011;43233;48.608;8.838;2023-06-14T01:52:30;7.23;;;4.47;;
32292;SDS011;43233;48.608;8.838;2023-06-14T01:54:56;6.80;;;4.60;;
32292;SDS011;43233;48.608;8.838;2023-06-14T01:57:23;6.97;;;5.20;;
32292;SDS011;43233;48.608;8.838;2023-06-14T01:59:50;5.80;;;5.13;;
32292;SDS011;43233;48.608;8.838;2023-06-14T02:02:16;5.53;;;5.00;;
32292;SDS011;43233;48.608;8.838;2023-06-14T02:04:41;6.83;;;4.87;;
32292;SDS011;43233;48.608;8.838;2023-06-14T02:07:07;6.70;;;5.00;;
32292;SDS011;43233;48.608;8.838;2023-06-14T02:09:33;5.70;;;5.17;;
32292;SDS011;43233;48.608;8.838;2023-06-14T02:11:59;5.23;;;4.67;;
32292;SDS011;43233;48.608;8.838;2023-06-14T02:14:26;8.07;;;5.50;;
32292;SDS011;43233;48.608;8.838;2023-06-14T02:16:52;6.60;;;5.23;;
32292;SDS011;43233;48.608;8.838;2023-06-14T02:19:19;5.50;;;4.80;;
32292;SDS011;43233;48.608;8.838;2023-06-14T02:21:45;5.57;;;5.03;;
32292;SDS011;43233;48.608;8.838;2023-06-14T02:24:12;14.73;;;5.53;;
32292;SDS011;43233;48.608;8.838;2023-06-14T02:26:38;9.20;;;5.40;;
32292;SDS011;43233;48.608;8.838;2023-06-14T02:29:04;6.20;;;5.60;;
32292;SDS011;43233;48.608;8.838;2023-06-14T02:31:30;6.43;;;4.50;;
32292;SDS011;43233;48.608;8.838;2023-06-14T02:33:56;5.73;;;5.23;;
32292;SDS011;43233;48.608;8.838;2023-06-14T02:36:22;6.17;;;5.63;;
32292;SDS011;43233;48.608;8.838;2023-06-14T02:38:48;7.70;;;5.20;;
32292;SDS011;43233;48.608;8.838;2023-06-14T02:41:13;8.97;;;5.10;;
32292;SDS011;43233;48.608;8.838;2023-06-14T02:43:39;8.87;;;5.80;;
32292;SDS011;43233;48.608;8.838;2023-06-14T02:46:05;4.67;;;4.27;;
32292;SDS011;43233;48.608;8.838;2023-06-14T02:48:31;6.43;;;5.13;;
32292;SDS011;43233;48.608;8.838;2023-06-14T02:50:56;7.03;;;4.63;;
32292;SDS011;43233;48.608;8.838;2023-06-14T02:53:22;6.60;;;5.30;;
32292;SDS011;43233;48.608;8.838;2023-06-14T02:55:48;7.50;;;5.10;;
32292;SDS011;43233;48.608;8.838;2023-06-14T02:58:14;6.27;;;4.47;;
32292;SDS011;43233;48.608;8.838;2023-06-14T03:00:39;7.90;;;5.27;;
32292;SDS011;43233;48.608;8.838;2023-06-14T03:03:06;9.33;;;5.83;;
32292;SDS011;43233;48.608;8.838;2023-06-14T03:05:38;6.30;;;5.23;;
32292;SDS011;43233;48.608;8.838;2023-06-14T03:08:12;7.50;;;4.40;;
32292;SDS011;43233;48.608;8.838;2023-06-14T03:10:44;8.43;;;5.93;;
32292;SDS011;43233;48.608;8.838;2023-06-14T03:13:13;6.83;;;5.07;;
32292;SDS011;43233;48.608;8.838;2023-06-14T03:15:40;5.67;;;4.97;;
32292;SDS011;43233;48.608;8.838;2023-06-14T03:18:10;5.37;;;4.87;;
32292;SDS011;43233;48.608;8.838;2023-06-14T03:20:37;10.53;;;5.27;;
32292;SDS011;43233;48.608;8.838;2023-06-14T03:23:03;8.90;;;4.30;;
32292;SDS011;43233;48.608;8.838;2023-06-14T03:25:30;4.90;;;4.20;;
32292;SDS011;43233;48.608;8.838;2023-06-14T03:27:56;7.10;;;5.33;;
32292;SDS011;43233;48.608;8.838;2023-06-14T03:30:22;7.20;;;5.20;;
32292;SDS011;43233;48.608;8.838;2023-06-14T03:32:48;7.83;;;4.50;;
32292;SDS011;43233;48.608;8.838;2023-06-14T03:35:14;6.43;;;5.30;;
32292;SDS011;43233;48.608;8.838;2023-06-14T03:37:45;6.97;;;4.97;;
32292;SDS011;43233;48.608;8.838;2023-06-14T03:40:12;6.93;;;4.83;;
32292;SDS011;43233;48.608;8.838;2023-06-14T03:42:40;6.70;;;4.90;;
32292;SDS011;43233;48.608;8.838;2023-06-14T03:45:06;7.53;;;4.87;;
32292;SDS011;43233;48.608;8.838;2023-06-14T03:47:32;5.20;;;4.70;;
32292;SDS011;43233;48.608;8.838;2023-06-14T03:49:59;5.53;;;4.73;;
32292;SDS011;43233;48.608;8.838;2023-06-14T03:52:25;6.70;;;5.30;;
32292;SDS011;43233;48.608;8.838;2023-06-14T03:54:51;9.03;;;5.17;;
32292;SDS011;43233;48.608;8.838;2023-06-14T03:57:16;5.63;;;4.90;;
32292;SDS011;43233;48.608;8.838;2023-06-14T03:59:42;6.70;;;5.03;;
32292;SDS011;43233;48.608;8.838;2023-06-14T04:02:08;10.30;;;5.20;;
32292;SDS011;43233;48.608;8.838;2023-06-14T04:04:40;10.50;;;5.23;;
32292;SDS011;43233;48.608;8.838;2023-06-14T04:07:09;5.47;;;4.57;;
32292;SDS011;43233;48.608;8.838;2023-06-14T04:09:38;6.10;;;4.93;;
32292;SDS011;43233;48.608;8.838;2023-06-14T04:12:05;5.07;;;4.57;;
32292;SDS011;43233;48.608;8.838;2023-06-14T04:14:31;5.60;;;4.50;;
32292;SDS011;43233;48.608;8.838;2023-06-14T04:16:58;5.40;;;4.90;;
32292;SDS011;43233;48.608;8.838;2023-06-14T04:19:23;7.13;;;4.63;;
32292;SDS011;43233;48.608;8.838;2023-06-14T04:21:49;14.60;;;5.00;;
32292;SDS011;43233;48.608;8.838;2023-06-14T04:24:15;5.10;;;4.30;;
32292;SDS011;43233;48.608;8.838;2023-06-14T04:26:41;6.40;;;4.40;;
32292;SDS011;43233;48.608;8.838;2023-06-14T04:29:09;5.37;;;4.80;;
32292;SDS011;43233;48.608;8.838;2023-06-14T04:31:42;5.67;;;5.00;;
32292;SDS011;43233;48.608;8.838;2023-06-14T04:34:09;7.33;;;5.00;;
32292;SDS011;43233;48.608;8.838;2023-06-14T04:36:41;10.13;;;5.27;;
32292;SDS011;43233;48.608;8.838;2023-06-14T04:39:17;9.10;;;4.83;;
32292;SDS011;43233;48.608;8.838;2023-06-14T04:41:44;6.00;;;5.30;;
32292;SDS011;43233;48.608;8.838;2023-06-14T04:44:10;6.40;;;4.70;;
32292;SDS011;43233;48.608;8.838;2023-06-14T04:46:37;8.40;;;5.00;;
32292;SDS011;43233;48.608;8.838;2023-06-14T04:49:14;6.67;;;4.93;;
32292;SDS011;43233;48.608;8.838;2023-06-14T04:51:40;6.73;;;4.33;;
32292;SDS011;43233;48.608;8.838;2023-06-14T04:54:07;9.20;;;4.33;;
32292;SDS011;43233;48.608;8.838;2023-06-14T04:56:38;5.90;;;4.60;;
32292;SDS011;43233;48.608;8.838;2023-06-14T04:59:03;6.17;;;4.20;;
32292;SDS011;43233;48.608;8.838;2023-06-14T05:01:30;4.97;;;4.40;;
32292;SDS011;43233;48.608;8.838;2023-06-14T05:03:57;4.30;;;3.93;;
32292;SDS011;43233;48.608;8.838;2023-06-14T05:06:23;8.00;;;4.63;;
32292;SDS011;43233;48.608;8.838;2023-06-14T05:08:48;18.13;;;4.20;;
32292;SDS011;43233;48.608;8.838;2023-06-14T05:11:14;4.80;;;4.40;;
32292;SDS011;43233;48.608;8.838;2023-06-14T05:13:43;5.17;;;4.67;;
32292;SDS011;43233;48.608;8.838;2023-06-14T05:16:09;5.70;;;5.00;;
32292;SDS011;43233;48.608;8.838;2023-06-14T05:18:40;4.40;;;4.00;;
32292;SDS011;43233;48.608;8.838;2023-06-14T05:21:06;5.20;;;4.33;;
32292;SDS011;43233;48.608;8.838;2023-06-14T05:23:32;5.10;;;4.60;;
32292;SDS011;43233;48.608;8.838;2023-06-14T05:25:57;5.50;;;5.00;;
32292;SDS011;43233;48.608;8.838;2023-06-14T05:28:23;4.27;;;3.87;;
32292;SDS011;43233;48.608;8.838;2023-06-14T05:30:49;4.60;;;4.20;;
32292;SDS011;43233;48.608;8.838;2023-06-14T05:33:15;5.90;;;5.33;;
32292;SDS011;43233;48.608;8.838;2023-06-14T05:35:40;6.83;;;5.10;;
32292;SDS011;43233;48.608;8.838;2023-06-14T05:38:06;4.17;;;3.87;;
32292;SDS011;43233;48.608;8.838;2023-06-14T05:40:32;4.70;;;3.40;;
32292;SDS011;43233;48.608;8.838;2023-06-14T05:42:58;5.27;;;4.73;;
32292;SDS011;43233;48.608;8.838;2023-06-14T05:45:24;9.20;;;4.47;;
32292;SDS011;43233;48.608;8.838;2023-06-14T05:47:49;7.47;;;5.30;;
32292;SDS011;43233;48.608;8.838;2023-06-14T05:50:15;6.60;;;4.20;;
32292;SDS011;43233;48.608;8.838;2023-06-14T05:52:41;5.40;;;3.70;;
32292;SDS011;43233;48.608;8.838;2023-06-14T05:55:07;7.83;;;4.20;;
32292;SDS011;43233;48.608;8.838;2023-06-14T05:57:33;5.00;;;4.00;;
32292;SDS011;43233;48.608;8.838;2023-06-14T05:59:58;3.93;;;3.63;;
32292;SDS011;43233;48.608;8.838;2023-06-14T06:02:24;4.13;;;3.50;;
32292;SDS011;43233;48.608;8.838;2023-06-14T06:04:49;5.70;;;3.70;;
32292;SDS011;43233;48.608;8.838;2023-06-14T06:07:15;4.23;;;3.60;;
32292;SDS011;43233;48.608;8.838;2023-06-14T06:09:41;5.63;;;4.30;;
32292;SDS011;43233;48.608;8.838;2023-06-14T06:12:07;4.40;;;4.00;;
32292;SDS011;43233;48.608;8.838;2023-06-14T06:14:32;4.17;;;3.70;;
32292;SDS011;43233;48.608;8.838;2023-06-14T06:16:58;4.47;;;4.07;;
32292;SDS011;43233;48.608;8.838;2023-06-14T06:19:24;4.83;;;4.20;;
32292;SDS011;43233;48.608;8.838;2023-06-14T06:21:50;5.43;;;3.67;;
32292;SDS011;43233;48.608;8.838;2023-06-14T06:24:16;4.00;;;3.60;;
32292;SDS011;43233;48.608;8.838;2023-06-14T06:26:41;4.47;;;4.03;;
32292;SDS011;43233;48.608;8.838;2023-06-14T06:29:07;4.07;;;3.70;;
32292;SDS011;43233;48.608;8.838;2023-06-14T06:31:33;3.70;;;3.23;;
32292;SDS011;43233;48.608;8.838;2023-06-14T06:33:58;5.73;;;4.37;;
32292;SDS011;43233;48.608;8.838;2023-06-14T06:36:24;4.03;;;3.73;;
32292;SDS011;43233;48.608;8.838;2023-06-14T06:38:50;5.10;;;4.10;;
32292;SDS011;43233;48.608;8.838;2023-06-14T06:41:16;6.67;;;4.53;;
32292;SDS011;43233;48.608;8.838;2023-06-14T06:43:41;4.63;;;4.23;;
32292;SDS011;43233;48.608;8.838;2023-06-14T06:46:07;5.27;;;4.10;;
32292;SDS011;43233;48.608;8.838;2023-06-14T06:48:32;4.20;;;3.90;;
32292;SDS011;43233;48.608;8.838;2023-06-14T06:50:58;4.63;;;3.93;;
32292;SDS011;43233;48.608;8.838;2023-06-14T06:53:24;6.70;;;4.37;;
32292;SDS011;43233;48.608;8.838;2023-06-14T06:55:49;17.57;;;4.20;;
32292;SDS011;43233;48.608;8.838;2023-06-14T06:58:15;5.70;;;3.97;;
32292;SDS011;43233;48.608;8.838;2023-06-14T07:00:40;4.37;;;3.97;;
32292;SDS011;43233;48.608;8.838;2023-06-14T07:03:06;4.90;;;4.40;;
32292;SDS011;43233;48.608;8.838;2023-06-14T07:05:32;11.53;;;4.47;;
32292;SDS011;43233;48.608;8.838;2023-06-14T07:07:57;3.57;;;3.23;;
32292;SDS011;43233;48.608;8.838;2023-06-14T07:10:23;3.43;;;3.10;;
32292;SDS011;43233;48.608;8.838;2023-06-14T07:12:52;4.97;;;3.70;;
32292;SDS011;43233;48.608;8.838;2023-06-14T07:15:17;3.30;;;3.00;;
32292;SDS011;43233;48.608;8.838;2023-06-14T07:17:43;7.10;;;4.10;;
32292;SDS011;43233;48.608;8.838;2023-06-14T07:20:09;5.07;;;3.60;;
32292;SDS011;43233;48.608;8.838;2023-06-14T07:22:41;3.17;;;2.97;;
32292;SDS011;43233;48.608;8.838;2023-06-14T07:25:08;6.30;;;3.90;;
32292;SDS011;43233;48.608;8.838;2023-06-14T07:27:34;4.90;;;3.67;;
32292;SDS011;43233;48.608;8.838;2023-06-14T07:30:00;4.40;;;3.60;;
32292;SDS011;43233;48.608;8.838;2023-06-14T07:32:26;4.93;;;3.50;;
32292;SDS011;43233;48.608;8.838;2023-06-14T07:34:51;4.60;;;3.40;;
32292;SDS011;43233;48.608;8.838;2023-06-14T07:37:17;7.23;;;4.00;;
32292;SDS011;43233;48.608;8.838;2023-06-14T07:39:42;4.73;;;3.57;;
32292;SDS011;43233;48.608;8.838;2023-06-14T07:42:08;3.70;;;3.03;;
32292;SDS011;43233;48.608;8.838;2023-06-14T07:44:34;3.97;;;3.63;;
32292;SDS011;43233;48.608;8.838;2023-06-14T07:47:00;23.77;;;5.03;;
32292;SDS011;43233;48.608;8.838;2023-06-14T07:49:27;19.10;;;5.10;;
32292;SDS011;43233;48.608;8.838;2023-06-14T07:51:52;9.10;;;3.77;;
32292;SDS011;43233;48.608;8.838;2023-06-14T07:54:18;8.20;;;3.87;;
32292;SDS011;43233;48.608;8.838;2023-06-14T07:56:45;6.47;;;4.00;;
32292;SDS011;43233;48.608;8.838;2023-06-14T07:59:10;3.63;;;2.87;;
32292;SDS011;43233;48.608;8.838;2023-06-14T08:01:36;4.20;;;3.80;;
32292;SDS011;43233;48.608;8.838;2023-06-14T08:04:02;3.40;;;3.00;;
32292;SDS011;43233;48.608;8.838;2023-06-14T08:06:28;6.00;;;3.20;;
32292;SDS011;43233;48.608;8.838;2023-06-14T08:08:53;8.80;;;3.70;;
32292;SDS011;43233;48.608;8.838;2023-06-14T08:11:19;5.20;;;3.70;;
32292;SDS011;43233;48.608;8.838;2023-06-14T08:13:44;4.33;;;3.70;;
32292;SDS011;43233;48.608;8.838;2023-06-14T08:16:10;4.13;;;3.73;;
32292;SDS011;43233;48.608;8.838;2023-06-14T08:18:35;7.50;;;3.30;;
32292;SDS011;43233;48.608;8.838;2023-06-14T08:21:01;16.03;;;4.40;;
32292;SDS011;43233;48.608;8.838;2023-06-14T08:23:27;4.10;;;3.50;;
32292;SDS011;43233;48.608;8.838;2023-06-14T08:25:53;6.93;;;3.27;;
32292;SDS011;43233;48.608;8.838;2023-06-14T08:28:19;4.07;;;3.60;;
32292;SDS011;43233;48.608;8.838;2023-06-14T08:30:45;6.27;;;3.43;;
32292;SDS011;43233;48.608;8.838;2023-06-14T08:33:10;3.40;;;3.17;;
32292;SDS011;43233;48.608;8.838;2023-06-14T08:35:36;4.50;;;3.30;;
32292;SDS011;43233;48.608;8.838;2023-06-14T08:38:03;6.03;;;4.10;;
32292;SDS011;43233;48.608;8.838;2023-06-14T08:40:29;8.90;;;3.83;;
32292;SDS011;43233;48.608;8.838;2023-06-14T08:42:55;5.23;;;4.10;;
32292;SDS011;43233;48.608;8.838;2023-06-14T08:45:22;5.43;;;3.23;;
32292;SDS011;43233;48.608;8.838;2023-06-14T08:47:48;5.10;;;4.53;;
32292;SDS011;43233;48.608;8.838;2023-06-14T08:50:22;7.10;;;4.80;;
32292;SDS011;43233;48.608;8.838;2023-06-14T08:52:51;4.43;;;4.00;;
32292;SDS011;43233;48.608;8.838;2023-06-14T08:55:21;5.47;;;3.80;;
32292;SDS011;43233;48.608;8.838;2023-06-14T08:57:51;8.83;;;3.70;;
32292;SDS011;43233;48.608;8.838;2023-06-14T09:00:18;8.00;;;4.10;;
32292;SDS011;43233;48.608;8.838;2023-06-14T09:02:45;8.43;;;4.20;;
32292;SDS011;43233;48.608;8.838;2023-06-14T09:05:12;8.00;;;4.70;;
32292;SDS011;43233;48.608;8.838;2023-06-14T09:07:39;10.13;;;5.10;;
32292;SDS011;43233;48.608;8.838;2023-06-14T09:10:14;7.13;;;5.20;;
32292;SDS011;43233;48.608;8.838;2023-06-14T09:12:40;8.23;;;4.30;;
32292;SDS011;43233;48.608;8.838;2023-06-14T09:15:07;6.00;;;4.47;;
32292;SDS011;43233;48.608;8.838;2023-06-14T09:17:40;4.00;;;3.70;;
32292;SDS011;43233;48.608;8.838;2023-06-14T09:20:07;6.13;;;3.93;;
32292;SDS011;43233;48.608;8.838;2023-06-14T09:22:38;3.63;;;3.33;;
32292;SDS011;43233;48.608;8.838;2023-06-14T09:25:04;5.70;;;3.20;;
32292;SDS011;43233;48.608;8.838;2023-06-14T09:27:31;5.87;;;4.13;;
32292;SDS011;43233;48.608;8.838;2023-06-14T09:29:57;6.60;;;3.83;;
32292;SDS011;43233;48.608;8.838;2023-06-14T09:32:23;5.27;;;4.10;;
32292;SDS011;43233;48.608;8.838;2023-06-14T09:34:48;6.50;;;4.27;;
32292;SDS011;43233;48.608;8.838;2023-06-14T09:37:27;4.43;;;3.70;;
32292;SDS011;43233;48.608;8.838;2023-06-14T09:39:54;4.83;;;4.00;;
32292;SDS011;43233;48.608;8.838;2023-06-14T09:42:20;3.60;;;3.20;;
32292;SDS011;43233;48.608;8.838;2023-06-14T09:44:49;6.60;;;4.53;;
32292;SDS011;43233;48.608;8.838;2023-06-14T09:47:15;5.43;;;4.00;;
32292;SDS011;43233;48.608;8.838;2023-06-14T09:49:41;3.70;;;3.40;;
32292;SDS011;43233;48.608;8.838;2023-06-14T09:52:10;6.87;;;3.63;;
32292;SDS011;43233;48.608;8.838;2023-06-14T09:54:42;4.03;;;3.60;;
32292;SDS011;43233;48.608;8.838;2023-06-14T09:57:09;3.80;;;3.50;;
32292;SDS011;43233;48.608;8.838;2023-06-14T09:59:36;8.50;;;3.80;;
32292;SDS011;43233;48.608;8.838;2023-06-14T10:02:26;5.90;;;3.63;;
32292;SDS011;43233;48.608;8.838;2023-06-14T10:05:06;4.60;;;4.17;;
32292;SDS011;43233;48.608;8.838;2023-06-14T10:07:40;5.63;;;3.80;;
32292;SDS011;43233;48.608;8.838;2023-06-14T10:10:14;6.40;;;3.60;;
32292;SDS011;43233;48.608;8.838;2023-06-14T10:12:40;3.70;;;3.40;;
32292;SDS011;43233;48.608;8.838;2023-06-14T10:15:07;6.37;;;3.90;;
32292;SDS011;43233;48.608;8.838;2023-06-14T10:20:10;7.00;;;4.50;;
32292;SDS011;43233;48.608;8.838;2023-06-14T10:23:13;4.87;;;4.37;;
32292;SDS011;43233;48.608;8.838;2023-06-14T10:25:43;4.37;;;3.97;;
32292;SDS011;43233;48.608;8.838;2023-06-14T10:28:19;5.83;;;4.20;;
32292;SDS011;43233;48.608;8.838;2023-06-14T10:33:48;5.03;;;4.53;;
32292;SDS011;43233;48.608;8.838;2023-06-14T10:38:56;3.70;;;3.37;;
32292;SDS011;43233;48.608;8.838;2023-06-14T10:41:23;3.83;;;3.50;;
32292;SDS011;43233;48.608;8.838;2023-06-14T10:43:52;5.43;;;3.70;;
32292;SDS011;43233;48.608;8.838;2023-06-14T10:46:35;5.87;;;3.67;;
32292;SDS011;43233;48.608;8.838;2023-06-14T10:49:00;9.97;;;4.20;;
32292;SDS011;43233;48.608;8.838;2023-06-14T10:51:29;7.83;;;3.40;;
32292;SDS011;43233;48.608;8.838;2023-06-14T10:53:55;3.80;;;3.50;;
32292;SDS011;43233;48.608;8.838;2023-06-14T10:56:29;14.50;;;3.80;;
32292;SDS011;43233;48.608;8.838;2023-06-14T10:58:57;4.43;;;4.03;;
32292;SDS011;43233;48.608;8.838;2023-06-14T11:04:14;4.70;;;2.77;;
32292;SDS011;43233;48.608;8.838;2023-06-14T11:06:49;3.30;;;3.07;;
32292;SDS011;43233;48.608;8.838;2023-06-14T11:12:03;5.00;;;3.57;;
32292;SDS011;43233;48.608;8.838;2023-06-14T11:14:31;7.20;;;3.43;;
32292;SDS011;43233;48.608;8.838;2023-06-14T11:16:57;5.30;;;3.70;;
32292;SDS011;43233;48.608;8.838;2023-06-14T11:19:22;6.93;;;3.67;;
32292;SDS011;43233;48.608;8.838;2023-06-14T11:21:49;5.33;;;3.63;;
32292;SDS011;43233;48.608;8.838;2023-06-14T11:24:14;2.87;;;2.67;;
32292;SDS011;43233;48.608;8.838;2023-06-14T11:26:41;2.70;;;2.50;;
32292;SDS011;43233;48.608;8.838;2023-06-14T11:29:07;3.97;;;3.57;;
32292;SDS011;43233;48.608;8.838;2023-06-14T11:31:33;2.77;;;2.57;;
32292;SDS011;43233;48.608;8.838;2023-06-14T11:33:59;3.53;;;3.23;;
32292;SDS011;43233;48.608;8.838;2023-06-14T11:36:29;5.60;;;3.53;;
32292;SDS011;43233;48.608;8.838;2023-06-14T11:39:02;3.60;;;3.30;;
32292;SDS011;43233;48.608;8.838;2023-06-14T11:41:38;3.70;;;3.40;;
32292;SDS011;43233;48.608;8.838;2023-06-14T11:44:05;7.43;;;3.70;;
32292;SDS011;43233;48.608;8.838;2023-06-14T11:46:32;3.80;;;3.50;;
32292;SDS011;43233;48.608;8.838;2023-06-14T11:48:58;3.00;;;2.80;;
32292;SDS011;43233;48.608;8.838;2023-06-14T11:51:23;4.70;;;3.53;;
32292;SDS011;43233;48.608;8.838;2023-06-14T11:53:50;5.30;;;3.00;;
32292;SDS011;43233;48.608;8.838;2023-06-14T11:56:15;11.57;;;3.60;;
32292;SDS011;43233;48.608;8.838;2023-06-14T11:58:44;4.10;;;3.73;;
32292;SDS011;43233;48.608;8.838;2023-06-14T12:01:14;5.10;;;3.60;;
32292;SDS011;43233;48.608;8.838;2023-06-14T12:03:46;3.30;;;2.97;;
32292;SDS011;43233;48.608;8.838;2023-06-14T12:06:13;4.00;;;3.40;;
32292;SDS011;43233;48.608;8.838;2023-06-14T12:08:39;4.50;;;3.47;;
32292;SDS011;43233;48.608;8.838;2023-06-14T12:11:11;3.50;;;3.20;;
32292;SDS011;43233;48.608;8.838;2023-06-14T12:13:39;5.97;;;3.87;;
32292;SDS011;43233;48.608;8.838;2023-06-14T12:16:06;10.50;;;3.97;;
32292;SDS011;43233;48.608;8.838;2023-06-14T12:18:34;6.13;;;4.03;;
32292;SDS011;43233;48.608;8.838;2023-06-14T12:21:00;4.30;;;3.90;;
32292;SDS011;43233;48.608;8.838;2023-06-14T12:23:27;5.63;;;2.83;;
32292;SDS011;43233;48.608;8.838;2023-06-14T12:26:17;4.83;;;3.67;;
32292;SDS011;43233;48.608;8.838;2023-06-14T12:28:44;3.73;;;3.40;;
32292;SDS011;43233;48.608;8.838;2023-06-14T12:31:11;5.57;;;3.67;;
32292;SDS011;43233;48.608;8.838;2023-06-14T12:33:37;7.90;;;3.40;;
32292;SDS011;43233;48.608;8.838;2023-06-14T12:36:04;5.97;;;3.40;;
32292;SDS011;43233;48.608;8.838;2023-06-14T12:38:31;3.03;;;2.83;;
32292;SDS011;43233;48.608;8.838;2023-06-14T12:40:57;3.57;;;2.73;;
32292;SDS011;43233;48.608;8.838;2023-06-14T12:43:23;4.10;;;3.00;;
32292;SDS011;43233;48.608;8.838;2023-06-14T12:45:49;3.60;;;3.30;;
32292;SDS011;43233;48.608;8.838;2023-06-14T12:48:14;4.53;;;3.23;;
32292;SDS011;43233;48.608;8.838;2023-06-14T12:50:40;3.70;;;3.40;;
32292;SDS011;43233;48.608;8.838;2023-06-14T12:53:06;3.90;;;3.17;;
32292;SDS011;43233;48.608;8.838;2023-06-14T12:55:32;7.50;;;3.60;;
32292;SDS011;43233;48.608;8.838;2023-06-14T12:57:58;4.07;;;3.03;;
32292;SDS011;43233;48.608;8.838;2023-06-14T13:00:24;4.27;;;3.57;;
32292;SDS011;43233;48.608;8.838;2023-06-14T13:02:51;3.73;;;3.23;;
32292;SDS011;43233;48.608;8.838;2023-06-14T13:05:17;3.03;;;2.73;;
32292;SDS011;43233;48.608;8.838;2023-06-14T13:07:43;4.27;;;3.97;;
32292;SDS011;43233;48.608;8.838;2023-06-14T13:10:09;4.37;;;3.33;;
32292;SDS011;43233;48.608;8.838;2023-06-14T13:12:35;4.20;;;2.97;;
32292;SDS011;43233;48.608;8.838;2023-06-14T13:15:00;3.23;;;3.03;;
32292;SDS011;43233;48.608;8.838;2023-06-14T13:17:26;3.27;;;2.97;;
32292;SDS011;43233;48.608;8.838;2023-06-14T13:19:52;4.97;;;3.50;;
32292;SDS011;43233;48.608;8.838;2023-06-14T13:22:18;3.60;;;3.00;;
32292;SDS011;43233;48.608;8.838;2023-06-14T13:24:43;3.77;;;3.43;;
32292;SDS011;43233;48.608;8.838;2023-06-14T13:27:09;3.20;;;3.00;;
32292;SDS011;43233;48.608;8.838;2023-06-14T13:29:35;5.77;;;2.93;;
32292;SDS011;43233;48.608;8.838;2023-06-14T13:32:02;3.77;;;3.10;;
32292;SDS011;43233;48.608;8.838;2023-06-14T13:34:28;8.23;;;5.00;;
32292;SDS011;43233;48.608;8.838;2023-06-14T13:36:53;3.90;;;3.23;;
32292;SDS011;43233;48.608;8.838;2023-06-14T13:39:19;3.70;;;3.40;;
32292;SDS011;43233;48.608;8.838;2023-06-14T13:41:44;3.67;;;3.37;;
32292;SDS011;43233;48.608;8.838;2023-06-14T13:44:10;3.27;;;2.63;;
32292;SDS011;43233;48.608;8.838;2023-06-14T13:46:40;6.60;;;3.57;;
32292;SDS011;43233;48.608;8.838;2023-06-14T13:49:07;4.60;;;3.60;;
32292;SDS011;43233;48.608;8.838;2023-06-14T13:51:33;6.13;;;3.30;;
32292;SDS011;43233;48.608;8.838;2023-06-14T13:54:00;6.33;;;3.23;;
32292;SDS011;43233;48.608;8.838;2023-06-14T13:56:26;6.20;;;3.10;;
32292;SDS011;43233;48.608;8.838;2023-06-14T13:58:52;3.87;;;3.33;;
32292;SDS011;43233;48.608;8.838;2023-06-14T14:01:17;7.60;;;3.60;;
32292;SDS011;43233;48.608;8.838;2023-06-14T14:03:45;6.53;;;3.10;;
32292;SDS011;43233;48.608;8.838;2023-06-14T14:06:11;3.50;;;3.20;;
32292;SDS011;43233;48.608;8.838;2023-06-14T14:08:38;3.70;;;3.40;;
32292;SDS011;43233;48.608;8.838;2023-06-14T14:11:04;2.83;;;2.60;;
32292;SDS011;43233;48.608;8.838;2023-06-14T14:13:30;3.70;;;3.40;;
32292;SDS011;43233;48.608;8.838;2023-06-14T14:15:56;6.33;;;3.30;;
32292;SDS011;43233;48.608;8.838;2023-06-14T14:18:22;6.77;;;3.23;;
32292;SDS011;43233;48.608;8.838;2023-06-14T14:20:48;4.37;;;3.97;;
32292;SDS011;43233;48.608;8.838;2023-06-14T14:23:14;2.90;;;2.70;;
32292;SDS011;43233;48.608;8.838;2023-06-14T14:25:39;3.07;;;2.83;;
32292;SDS011;43233;48.608;8.838;2023-06-14T14:28:05;8.10;;;3.43;;
32292;SDS011;43233;48.608;8.838;2023-06-14T14:30:31;3.47;;;3.17;;
32292;SDS011;43233;48.608;8.838;2023-06-14T14:32:57;3.87;;;3.07;;
32292;SDS011;43233;48.608;8.838;2023-06-14T14:35:23;3.00;;;2.70;;
32292;SDS011;43233;48.608;8.838;2023-06-14T14:37:51;4.50;;;3.20;;
32292;SDS011;43233;48.608;8.838;2023-06-14T14:40:16;5.20;;;2.70;;
32292;SDS011;43233;48.608;8.838;2023-06-14T14:42:42;5.37;;;3.07;;
32292;SDS011;43233;48.608;8.838;2023-06-14T14:45:08;3.87;;;3.10;;
32292;SDS011;43233;48.608;8.838;2023-06-14T14:47:34;3.23;;;2.93;;
32292;SDS011;43233;48.608;8.838;2023-06-14T14:49:59;3.77;;;3.37;;
32292;SDS011;43233;48.608;8.838;2023-06-14T14:52:25;5.23;;;3.40;;
32292;SDS011;43233;48.608;8.838;2023-06-14T14:54:51;3.63;;;3.13;;
32292;SDS011;43233;48.608;8.838;2023-06-14T14:57:18;3.53;;;3.23;;
32292;SDS011;43233;48.608;8.838;2023-06-14T14:59:43;6.10;;;2.90;;
32292;SDS011;43233;48.608;8.838;2023-06-14T15:02:09;4.10;;;3.07;;